createdAt,value
2022-09-24T00:01:52.276Z,97.37
2022-09-24T00:04:21.126Z,97.84
2022-09-24T00:06:49.236Z,97.52
2022-09-24T00:09:22.145Z,97.76
2022-09-24T00:11:51.518Z,97.80
2022-09-24T00:14:19.532Z,98.04
2022-09-24T00:16:47.734Z,98.17
2022-09-24T00:19:15.957Z,98.24
2022-09-24T00:21:44.583Z,98.07
2022-09-24T00:24:36.969Z,98.28
2022-09-24T00:27:06.560Z,98.28
2022-09-24T00:29:35.694Z,98.34
2022-09-24T00:32:05.566Z,98.36
2022-09-24T00:34:33.830Z,98.10
2022-09-24T00:37:01.730Z,98.34
2022-09-24T00:39:29.638Z,98.20
2022-09-24T00:41:57.653Z,97.95
2022-09-24T00:44:54.680Z,98.62
2022-09-24T00:47:31.472Z,98.26
2022-09-24T00:50:06.470Z,97.88
2022-09-24T00:52:35.190Z,98.01
2022-09-24T00:55:03.133Z,97.97
2022-09-24T00:57:31.431Z,98.16
2022-09-24T01:00:00.861Z,97.95
2022-09-24T01:02:28.829Z,98.31
2022-09-24T01:04:57.166Z,97.51
2022-09-24T01:07:25.557Z,97.73
2022-09-24T01:09:53.665Z,97.46
2022-09-24T01:12:33.676Z,96.82
2022-09-24T01:15:12.790Z,96.89
2022-09-24T01:17:49.880Z,96.65
2022-09-24T01:20:48.524Z,96.37
2022-09-24T01:23:48.410Z,96.25
2022-09-24T01:26:39.488Z,95.84
2022-09-24T01:29:32.324Z,96.19
2022-09-24T01:32:06.081Z,96.22
2022-09-24T01:34:41.368Z,95.73
2022-09-24T01:37:09.965Z,95.88
2022-09-24T01:39:39.363Z,95.66
2022-09-24T01:42:11.201Z,95.54
2022-09-24T01:44:42.501Z,95.57
2022-09-24T01:47:12.496Z,95.04
2022-09-24T01:49:40.477Z,94.98
2022-09-24T01:52:15.889Z,95.38
2022-09-24T01:54:50.895Z,95.17
2022-09-24T01:57:22.609Z,95.40
2022-09-24T01:59:56.161Z,95.70
2022-09-24T02:02:29.783Z,95.46
2022-09-24T02:05:04.099Z,95.87
2022-09-24T02:07:36.762Z,95.95
2022-09-24T02:10:04.969Z,96.47
2022-09-24T02:12:38.018Z,96.61
2022-09-24T02:15:12.947Z,96.74
2022-09-24T02:17:45.743Z,96.82
2022-09-24T02:20:17.679Z,96.99
2022-09-24T02:22:47.138Z,96.72
2022-09-24T02:25:20.114Z,97.01
2022-09-24T02:27:48.268Z,96.84
2022-09-24T02:30:17.989Z,96.72
2022-09-24T02:32:45.969Z,96.99
2022-09-24T02:35:13.604Z,97.32
2022-09-24T02:37:44.522Z,97.01
2022-09-24T02:40:15.424Z,96.92
2022-09-24T02:42:43.765Z,96.91
2022-09-24T02:45:12.974Z,97.19
2022-09-24T02:47:42.378Z,97.00
2022-09-24T02:50:10.955Z,97.05
2022-09-24T02:52:38.790Z,97.32
2022-09-24T02:55:07.351Z,96.80
2022-09-24T02:57:35.425Z,97.08
2022-09-24T03:00:03.755Z,97.36
2022-09-24T03:02:31.773Z,97.23
2022-09-24T03:05:01.288Z,97.24
2022-09-24T03:07:29.122Z,97.19
2022-09-24T03:09:57.865Z,97.65
2022-09-24T03:12:25.844Z,97.87
2022-09-24T03:14:53.710Z,97.74
2022-09-24T03:17:21.796Z,97.44
2022-09-24T03:19:49.921Z,97.95
2022-09-24T03:22:19.184Z,97.82
2022-09-24T03:24:47.186Z,97.77
2022-09-24T03:27:16.322Z,97.76
2022-09-24T03:30:01.923Z,97.62
2022-09-24T03:32:30.068Z,97.63
2022-09-24T03:34:57.938Z,97.84
2022-09-24T03:37:27.599Z,97.70
2022-09-24T03:39:55.539Z,97.65
2022-09-24T03:42:23.389Z,97.78
2022-09-24T03:44:54.302Z,97.60
2022-09-24T03:47:22.288Z,97.95
2022-09-24T03:49:50.127Z,97.46
2022-09-24T03:52:18.518Z,97.47
2022-09-24T03:54:47.829Z,97.68
2022-09-24T03:57:15.853Z,97.86
2022-09-24T03:59:43.943Z,97.95
2022-09-24T04:02:12.716Z,97.63
2022-09-24T04:04:40.806Z,98.09
2022-09-24T04:07:08.820Z,97.86
2022-09-24T04:09:36.790Z,97.96
2022-09-24T04:12:06.785Z,97.88
2022-09-24T04:14:34.827Z,97.93
2022-09-24T04:17:02.811Z,97.76
2022-09-24T04:19:32.154Z,97.77
2022-09-24T04:22:00.221Z,98.04
2022-09-24T04:24:28.101Z,98.30
2022-09-24T04:26:55.987Z,98.41
2022-09-24T04:29:25.614Z,98.20
2022-09-24T04:31:53.637Z,98.22
2022-09-24T04:34:22.013Z,98.18
2022-09-24T04:36:50.148Z,98.29
2022-09-24T04:39:17.973Z,97.93
2022-09-24T04:41:47.967Z,98.35
2022-09-24T04:44:16.211Z,98.28
2022-09-24T04:46:45.426Z,98.64
2022-09-24T04:49:14.262Z,98.58
2022-09-24T04:51:43.193Z,98.45
2022-09-24T04:54:11.285Z,98.37
2022-09-24T04:56:39.141Z,98.50
2022-09-24T04:59:07.221Z,98.80
2022-09-24T05:01:35.254Z,98.57
2022-09-24T05:04:04.659Z,98.33
2022-09-24T05:06:34.063Z,98.57
2022-09-24T05:09:02.027Z,98.53
2022-09-24T05:11:29.971Z,98.30
2022-09-24T05:13:58.065Z,98.04
2022-09-24T05:16:26.128Z,97.34
2022-09-24T05:18:54.973Z,97.08
2022-09-24T05:21:24.423Z,96.70
2022-09-24T05:23:52.336Z,96.48
2022-09-24T05:26:49.388Z,96.23
2022-09-24T05:29:17.444Z,96.41
2022-09-24T05:31:45.374Z,96.56
2022-09-24T05:34:14.485Z,96.48
2022-09-24T05:36:44.316Z,96.79
2022-09-24T05:39:13.033Z,96.54
2022-09-24T05:41:41.653Z,96.85
2022-09-24T05:44:11.137Z,96.55
2022-09-24T05:46:39.200Z,96.58
2022-09-24T05:49:07.473Z,96.76
2022-09-24T05:51:35.449Z,96.70
2022-09-24T05:54:05.257Z,96.83
2022-09-24T05:56:33.261Z,97.07
2022-09-24T05:59:01.644Z,97.10
2022-09-24T06:01:30.755Z,96.86
2022-09-24T06:03:58.807Z,97.29
2022-09-24T06:06:27.212Z,97.22
2022-09-24T06:08:55.849Z,96.76
2022-09-24T06:11:25.786Z,96.81
2022-09-24T06:13:53.675Z,97.02
2022-09-24T06:16:21.536Z,96.42
2022-09-24T06:18:49.556Z,96.74
2022-09-24T06:21:18.801Z,96.48
2022-09-24T06:23:46.693Z,96.16
2022-09-24T06:26:15.483Z,96.11
2022-09-24T06:28:44.857Z,95.96
2022-09-24T06:31:12.754Z,95.82
2022-09-24T06:33:41.135Z,95.47
2022-09-24T06:36:09.470Z,95.45
2022-09-24T06:38:39.411Z,95.38
2022-09-24T06:41:08.326Z,95.10
2022-09-24T06:43:36.522Z,94.95
2022-09-24T06:46:05.870Z,94.99
2022-09-24T06:48:33.881Z,94.59
2022-09-24T06:51:01.841Z,94.35
2022-09-24T06:53:29.720Z,93.75
2022-09-24T06:56:00.131Z,93.44
2022-09-24T06:58:28.217Z,93.16
2022-09-24T07:00:58.940Z,93.07
2022-09-24T07:03:30.381Z,92.41
2022-09-24T07:06:01.667Z,92.45
2022-09-24T07:08:29.557Z,92.09
2022-09-24T07:10:57.709Z,91.87
2022-09-24T07:13:25.815Z,91.69
2022-09-24T07:15:54.193Z,91.87
2022-09-24T07:18:22.510Z,91.93
2022-09-24T07:20:55.139Z,92.13
2022-09-24T07:23:24.132Z,91.86
2022-09-24T07:25:57.017Z,91.50
2022-09-24T07:28:25.281Z,91.49
2022-09-24T07:30:58.496Z,91.45
2022-09-24T07:33:26.905Z,91.55
2022-09-24T07:35:56.102Z,91.32
2022-09-24T07:38:24.233Z,91.35
2022-09-24T07:40:53.146Z,91.32
2022-09-24T07:43:22.416Z,91.31
2022-09-24T07:45:50.417Z,90.80
2022-09-24T07:48:18.504Z,90.34
2022-09-24T07:50:46.448Z,89.35
2022-09-24T07:53:16.937Z,88.65
2022-09-24T07:55:45.629Z,87.88
2022-09-24T07:58:14.924Z,86.93
2022-09-24T08:00:43.277Z,86.18
2022-09-24T08:03:11.386Z,85.29
2022-09-24T08:05:45.598Z,84.28
2022-09-24T08:08:15.134Z,83.85
2022-09-24T08:10:43.593Z,83.33
2022-09-24T08:13:11.678Z,82.95
2022-09-24T08:15:39.814Z,82.56
2022-09-24T08:18:08.203Z,82.11
2022-09-24T08:20:38.531Z,81.77
2022-09-24T08:23:08.254Z,81.34
2022-09-24T08:25:37.472Z,81.01
2022-09-24T08:28:06.235Z,81.01
2022-09-24T08:30:35.642Z,81.28
2022-09-24T08:33:06.566Z,80.61
2022-09-24T08:35:34.659Z,80.62
2022-09-24T08:38:03.625Z,80.23
2022-09-24T08:40:34.716Z,79.98
2022-09-24T08:43:14.570Z,78.79
2022-09-24T08:46:05.170Z,78.58
2022-09-24T08:48:37.449Z,77.52
2022-09-24T08:51:09.802Z,75.15
2022-09-24T08:53:48.870Z,73.15
2022-09-24T08:56:22.173Z,73.12
2022-09-24T08:58:56.424Z,71.56
2022-09-24T09:01:37.027Z,70.57
2022-09-24T09:04:22.263Z,69.77
2022-09-24T09:07:02.898Z,69.14
2022-09-24T09:09:43.521Z,67.24
2022-09-24T09:12:18.703Z,65.03
2022-09-24T09:14:53.833Z,62.91
2022-09-24T09:17:33.490Z,61.05
2022-09-24T09:20:05.762Z,62.27
2022-09-24T09:22:38.795Z,60.38
2022-09-24T09:25:19.893Z,58.54
2022-09-24T09:27:51.373Z,57.76
2022-09-24T09:30:22.392Z,55.15
2022-09-24T09:33:17.043Z,53.28
2022-09-24T09:35:52.550Z,54.71
2022-09-24T09:38:26.605Z,54.91
2022-09-24T09:41:01.641Z,55.12
2022-09-24T09:43:29.755Z,53.78
2022-09-24T09:46:11.050Z,53.38
2022-09-24T09:48:45.894Z,54.88
2022-09-24T09:51:22.565Z,55.52
2022-09-24T09:53:56.159Z,56.37
2022-09-24T09:56:27.162Z,56.44
2022-09-24T09:59:03.801Z,57.19
2022-09-24T10:01:35.372Z,58.04
2022-09-24T10:04:04.947Z,58.26
2022-09-24T10:06:35.351Z,57.83
2022-09-24T10:09:13.656Z,57.95
2022-09-24T10:11:42.355Z,58.11
2022-09-24T10:14:13.143Z,57.31
2022-09-24T10:16:44.889Z,57.67
2022-09-24T10:19:18.578Z,55.91
2022-09-24T10:21:46.636Z,55.23
2022-09-24T10:24:20.273Z,54.03
2022-09-24T10:26:49.195Z,53.49
2022-09-24T10:29:37.343Z,52.81
2022-09-24T10:32:08.614Z,52.67
2022-09-24T10:34:36.497Z,53.87
2022-09-24T10:37:12.834Z,53.06
2022-09-24T10:39:42.539Z,51.92
2022-09-24T10:42:25.103Z,49.85
2022-09-24T10:44:53.970Z,50.72
2022-09-24T10:47:28.652Z,50.69
2022-09-24T10:50:21.665Z,51.08
2022-09-24T10:52:54.783Z,51.08
2022-09-24T10:55:40.841Z,51.64
2022-09-24T10:58:26.144Z,52.85
2022-09-24T11:01:05.708Z,52.49
2022-09-24T11:04:01.841Z,53.14
2022-09-24T11:06:44.597Z,53.02
2022-09-24T11:09:25.056Z,53.27
2022-09-24T11:12:05.389Z,53.34
2022-09-24T11:14:50.931Z,53.23
2022-09-24T11:17:45.297Z,52.79
2022-09-24T11:20:24.602Z,52.91
2022-09-24T11:23:10.019Z,53.12
2022-09-24T11:25:45.965Z,53.60
2022-09-24T11:28:27.672Z,54.30
2022-09-24T11:31:06.728Z,53.58
2022-09-24T11:33:54.018Z,53.33
2022-09-24T11:36:43.140Z,52.77
2022-09-24T11:39:27.365Z,53.05
2022-09-24T11:42:05.509Z,53.25
2022-09-24T11:45:05.926Z,53.31
2022-09-24T11:47:59.362Z,53.19
2022-09-24T11:50:36.992Z,53.05
2022-09-24T11:53:12.675Z,52.85
2022-09-24T11:55:47.963Z,52.47
2022-09-24T11:58:19.645Z,51.69
2022-09-24T12:00:53.228Z,49.72
2022-09-24T12:03:26.770Z,49.93
2022-09-24T12:06:01.348Z,50.19
2022-09-24T12:08:34.718Z,49.55
2022-09-24T12:11:07.943Z,49.52
2022-09-24T12:13:39.741Z,48.38
2022-09-24T12:16:13.611Z,46.42
2022-09-24T12:18:46.417Z,45.79
2022-09-24T12:21:18.471Z,45.68
2022-09-24T12:23:51.504Z,45.48
2022-09-24T12:26:24.068Z,44.77
2022-09-24T12:29:15.758Z,44.69
2022-09-24T12:32:07.892Z,45.48
2022-09-24T12:34:47.310Z,47.05
2022-09-24T12:37:19.227Z,47.53
2022-09-24T12:39:54.638Z,47.66
2022-09-24T12:42:24.080Z,48.17
2022-09-24T12:44:56.557Z,48.71
2022-09-24T12:47:28.070Z,49.29
2022-09-24T12:49:59.626Z,49.94
2022-09-24T12:52:33.922Z,50.09
2022-09-24T12:55:05.372Z,49.94
2022-09-24T12:57:36.722Z,50.16
2022-09-24T13:00:27.213Z,50.40
2022-09-24T13:02:56.696Z,50.21
2022-09-24T13:05:30.145Z,50.49
2022-09-24T13:08:00.924Z,50.78
2022-09-24T13:10:32.116Z,50.33
2022-09-24T13:13:01.569Z,50.76
2022-09-24T13:15:35.240Z,51.08
2022-09-24T13:18:18.627Z,51.87
2022-09-24T13:21:01.933Z,51.75
2022-09-24T13:23:33.756Z,51.70
2022-09-24T13:26:06.860Z,51.20
2022-09-24T13:28:52.437Z,51.77
2022-09-24T13:31:26.897Z,51.98
2022-09-24T13:33:58.412Z,52.52
2022-09-24T13:36:34.793Z,52.89
2022-09-24T13:39:07.687Z,52.60
2022-09-24T13:41:46.991Z,52.67
2022-09-24T13:44:20.248Z,52.46
2022-09-24T13:46:53.198Z,52.24
2022-09-24T13:49:24.216Z,52.44
2022-09-24T13:52:01.115Z,52.23
2022-09-24T13:54:34.971Z,52.68
2022-09-24T13:57:13.323Z,53.09
2022-09-24T13:59:41.333Z,52.85
2022-09-24T14:02:25.953Z,52.68
2022-09-24T14:04:58.830Z,53.33
2022-09-24T14:07:28.692Z,53.14
2022-09-24T14:10:04.216Z,52.92
2022-09-24T14:12:33.899Z,52.71
2022-09-24T14:15:04.527Z,52.90
2022-09-24T14:17:32.477Z,53.30
2022-09-24T14:20:00.625Z,53.30
2022-09-24T14:22:34.420Z,53.37
2022-09-24T14:25:05.945Z,53.32
2022-09-24T14:27:42.062Z,53.04
2022-09-24T14:30:20.556Z,52.81
2022-09-24T14:32:53.128Z,53.29
2022-09-24T14:35:29.652Z,52.72
2022-09-24T14:38:04.357Z,52.41
2022-09-24T14:40:42.026Z,51.77
2022-09-24T14:43:19.652Z,51.66
2022-09-24T14:45:50.091Z,51.58
2022-09-24T14:48:27.790Z,51.73
2022-09-24T14:50:55.733Z,51.65
2022-09-24T14:53:27.066Z,50.34
2022-09-24T14:55:55.225Z,51.23
2022-09-24T14:58:36.435Z,51.29
2022-09-24T15:01:08.339Z,51.61
2022-09-24T15:03:42.011Z,52.10
2022-09-24T15:06:20.723Z,52.40
2022-09-24T15:09:01.740Z,52.49
2022-09-24T15:11:31.604Z,52.47
2022-09-24T15:14:03.597Z,52.45
2022-09-24T15:16:34.735Z,52.99
2022-09-24T15:19:17.050Z,53.11
2022-09-24T15:21:45.611Z,53.27
2022-09-24T15:24:13.780Z,53.62
2022-09-24T15:26:45.095Z,53.75
2022-09-24T15:29:21.316Z,54.52
2022-09-24T15:31:50.399Z,54.32
2022-09-24T15:34:20.343Z,54.29
2022-09-24T15:36:49.561Z,54.54
2022-09-24T15:39:20.018Z,54.68
2022-09-24T15:41:48.039Z,55.22
2022-09-24T15:44:22.693Z,55.52
2022-09-24T15:46:51.631Z,55.36
2022-09-24T15:49:22.164Z,55.36
2022-09-24T15:51:52.310Z,55.38
2022-09-24T15:54:21.717Z,55.43
2022-09-24T15:56:52.500Z,55.49
2022-09-24T15:59:23.692Z,55.99
2022-09-24T16:01:55.282Z,56.21
2022-09-24T16:04:23.419Z,56.49
2022-09-24T16:06:51.572Z,56.93
2022-09-24T16:09:21.137Z,57.27
2022-09-24T16:11:49.062Z,57.77
2022-09-24T16:14:16.976Z,58.61
2022-09-24T16:16:46.227Z,59.06
2022-09-24T16:19:14.872Z,59.65
2022-09-24T16:21:43.034Z,60.14
2022-09-24T16:24:10.921Z,60.76
2022-09-24T16:26:39.147Z,61.44
2022-09-24T16:29:10.037Z,61.43
2022-09-24T16:31:37.979Z,61.79
2022-09-24T16:34:07.392Z,62.16
2022-09-24T16:36:35.952Z,62.98
2022-09-24T16:39:03.924Z,63.37
2022-09-24T16:41:34.540Z,63.66
2022-09-24T16:44:03.286Z,63.98
2022-09-24T16:46:31.479Z,64.56
2022-09-24T16:48:59.449Z,65.02
2022-09-24T16:51:29.240Z,65.80
2022-09-24T16:53:57.626Z,66.21
2022-09-24T16:56:25.880Z,66.72
2022-09-24T16:58:54.577Z,67.21
2022-09-24T17:01:24.235Z,67.63
2022-09-24T17:03:52.394Z,68.04
2022-09-24T17:06:21.772Z,68.31
2022-09-24T17:09:08.743Z,68.88
2022-09-24T17:11:37.296Z,69.22
2022-09-24T17:14:06.148Z,69.50
2022-09-24T17:16:34.691Z,70.18
2022-09-24T17:19:02.889Z,70.23
2022-09-24T17:21:31.037Z,70.25
2022-09-24T17:24:00.321Z,70.37
2022-09-24T17:26:28.594Z,70.30
2022-09-24T17:28:57.148Z,70.58
2022-09-24T17:31:26.323Z,70.70
2022-09-24T17:33:58.077Z,71.45
2022-09-24T17:36:26.914Z,71.69
2022-09-24T17:38:56.186Z,72.07
2022-09-24T17:41:25.536Z,72.37
2022-09-24T17:43:53.615Z,72.85
2022-09-24T17:46:23.414Z,73.18
2022-09-24T17:48:54.349Z,73.51
2022-09-24T17:51:24.093Z,73.59
2022-09-24T17:53:54.098Z,73.43
2022-09-24T17:56:23.866Z,73.45
2022-09-24T17:58:55.008Z,73.86
2022-09-24T18:01:24.602Z,73.91
2022-09-24T18:03:55.027Z,74.15
2022-09-24T18:06:26.318Z,73.79
2022-09-24T18:08:58.164Z,73.49
2022-09-24T18:11:28.400Z,73.52
2022-09-24T18:13:59.408Z,73.18
2022-09-24T18:16:29.684Z,72.40
2022-09-24T18:19:00.291Z,72.47
2022-09-24T18:21:29.842Z,72.60
2022-09-24T18:23:59.676Z,72.64
2022-09-24T18:26:29.551Z,72.45
2022-09-24T18:29:00.962Z,72.34
2022-09-24T18:31:30.599Z,72.12
2022-09-24T18:34:05.178Z,72.04
2022-09-24T18:36:35.008Z,71.97
2022-09-24T18:39:04.968Z,72.08
2022-09-24T18:41:33.424Z,72.12
2022-09-24T18:44:03.759Z,72.05
2022-09-24T18:46:33.646Z,71.97
2022-09-24T18:49:02.512Z,71.98
2022-09-24T18:51:32.542Z,71.80
2022-09-24T18:54:06.125Z,72.00
2022-09-24T18:56:37.718Z,72.16
2022-09-24T18:59:10.180Z,72.54
2022-09-24T19:01:39.932Z,72.78
2022-09-24T19:04:10.741Z,72.85
2022-09-24T19:06:41.387Z,72.96
2022-09-24T19:09:11.338Z,73.56
2022-09-24T19:11:42.097Z,73.78
2022-09-24T19:14:13.070Z,73.82
2022-09-24T19:16:41.376Z,74.22
2022-09-24T19:19:11.351Z,74.18
2022-09-24T19:21:40.877Z,74.52
2022-09-24T19:24:12.970Z,74.41
2022-09-24T19:26:41.255Z,74.50
2022-09-24T19:29:09.434Z,75.07
2022-09-24T19:31:42.418Z,75.49
2022-09-24T19:34:13.109Z,75.40
2022-09-24T19:36:44.895Z,75.68
2022-09-24T19:39:15.401Z,75.88
2022-09-24T19:41:44.298Z,76.05
2022-09-24T19:44:16.281Z,75.96
2022-09-24T19:46:47.260Z,76.11
2022-09-24T19:49:20.511Z,76.49
2022-09-24T19:51:48.893Z,76.33
2022-09-24T19:54:20.085Z,76.48
2022-09-24T19:56:48.636Z,76.80
2022-09-24T19:59:17.813Z,77.07
2022-09-24T20:01:49.099Z,77.64
2022-09-24T20:04:20.601Z,77.29
2022-09-24T20:06:52.427Z,77.55
2022-09-24T20:09:21.050Z,77.93
2022-09-24T20:11:52.941Z,78.29
2022-09-24T20:14:22.236Z,78.38
2022-09-24T20:16:52.022Z,78.64
2022-09-24T20:19:22.375Z,79.08
2022-09-24T20:21:52.665Z,79.07
2022-09-24T20:24:21.650Z,79.05
2022-09-24T20:27:07.984Z,78.91
2022-09-24T20:29:37.478Z,79.13
2022-09-24T20:32:13.069Z,79.20
2022-09-24T20:34:42.548Z,79.30
2022-09-24T20:37:10.999Z,79.45
2022-09-24T20:39:39.599Z,79.52
2022-09-24T20:42:08.734Z,79.49
2022-09-24T20:44:37.809Z,79.55
2022-09-24T20:47:08.328Z,79.82
2022-09-24T20:49:36.272Z,80.07
2022-09-24T20:52:08.366Z,80.37
2022-09-24T20:54:37.084Z,80.36
2022-09-24T20:57:05.509Z,80.13
2022-09-24T20:59:34.308Z,80.65
2022-09-24T21:02:03.053Z,80.51
2022-09-24T21:04:35.253Z,80.99
2022-09-24T21:07:04.352Z,81.36
2022-09-24T21:09:36.104Z,81.68
2022-09-24T21:12:06.599Z,81.43
2022-09-24T21:14:35.829Z,81.94
2022-09-24T21:17:04.644Z,82.05
2022-09-24T21:19:36.689Z,82.23
2022-09-24T21:22:06.365Z,82.31
2022-09-24T21:24:35.073Z,82.88
2022-09-24T21:27:05.821Z,82.86
2022-09-24T21:29:33.991Z,83.29
2022-09-24T21:32:02.608Z,83.04
2022-09-24T21:34:33.900Z,83.51
2022-09-24T21:37:04.461Z,83.56
2022-09-24T21:39:32.399Z,83.94
2022-09-24T21:42:00.426Z,83.95
2022-09-24T21:44:30.601Z,83.90
2022-09-24T21:46:58.502Z,84.22
2022-09-24T21:49:26.573Z,84.50
2022-09-24T21:51:57.028Z,84.63
2022-09-24T21:54:26.641Z,84.97
2022-09-24T21:56:55.291Z,85.07
2022-09-24T21:59:40.940Z,85.34
2022-09-24T22:02:11.231Z,85.38
2022-09-24T22:04:39.741Z,85.60
2022-09-24T22:07:08.140Z,85.47
2022-09-24T22:09:37.817Z,85.55
2022-09-24T22:12:06.506Z,86.01
2022-09-24T22:14:35.368Z,85.86
2022-09-24T22:17:03.897Z,86.07
2022-09-24T22:19:32.058Z,85.84
2022-09-24T22:21:59.983Z,86.12
2022-09-24T22:24:28.290Z,86.21
2022-09-24T22:26:57.577Z,86.75
2022-09-24T22:29:25.676Z,86.36
2022-09-24T22:31:53.504Z,86.92
2022-09-24T22:34:38.715Z,86.76
2022-09-24T22:37:07.642Z,86.91
2022-09-24T22:39:36.223Z,86.92
2022-09-24T22:42:06.146Z,87.50
2022-09-24T22:44:34.038Z,87.24
2022-09-24T22:47:02.238Z,87.51
2022-09-24T22:49:30.558Z,87.42
2022-09-24T22:51:58.433Z,87.39
2022-09-24T22:54:26.575Z,87.33
2022-09-24T22:56:54.701Z,87.36
2022-09-24T22:59:23.910Z,87.31
2022-09-24T23:01:51.971Z,87.57
2022-09-24T23:04:20.912Z,88.15
2022-09-24T23:06:48.955Z,88.11
2022-09-24T23:09:16.907Z,88.24
2022-09-24T23:11:44.970Z,88.27
2022-09-24T23:14:14.675Z,88.68
2022-09-24T23:16:44.970Z,88.83
2022-09-24T23:19:15.232Z,89.48
2022-09-24T23:21:43.613Z,89.10
2022-09-24T23:24:15.501Z,89.92
2022-09-24T23:26:43.534Z,89.97
2022-09-24T23:29:12.522Z,89.86
2022-09-24T23:31:40.926Z,90.08
2022-09-24T23:34:12.969Z,90.39
2022-09-24T23:36:40.984Z,90.48
2022-09-24T23:39:08.948Z,90.86
2022-09-24T23:41:37.645Z,90.96
2022-09-24T23:44:06.172Z,91.00
2022-09-24T23:46:34.707Z,91.21
2022-09-24T23:49:02.732Z,91.23
2022-09-24T23:51:32.174Z,91.19
2022-09-24T23:54:00.734Z,91.10
2022-09-24T23:56:29.243Z,91.50
2022-09-24T23:58:57.748Z,91.32
